sensor_id;sensor_type;location;lat;lon;timestamp;P1;durP1;ratioP1;P2;durP2;ratioP2
6017;SDS011;3037;51.068;13.780;2022-12-10T00:00:37;59.60;;;29.10;;
6017;SDS011;3037;51.068;13.780;2022-12-10T00:03:02;70.50;;;28.83;;
6017;SDS011;3037;51.068;13.780;2022-12-10T00:05:28;54.87;;;28.50;;
6017;SDS011;3037;51.068;13.780;2022-12-10T00:07:54;60.27;;;28.77;;
6017;SDS011;3037;51.068;13.780;2022-12-10T00:10:20;55.30;;;27.57;;
6017;SDS011;3037;51.068;13.780;2022-12-10T00:12:45;61.87;;;29.80;;
6017;SDS011;3037;51.068;13.780;2022-12-10T00:15:11;56.07;;;29.07;;
6017;SDS011;3037;51.068;13.780;2022-12-10T00:17:36;57.80;;;27.43;;
6017;SDS011;3037;51.068;13.780;2022-12-10T00:20:02;61.17;;;26.50;;
6017;SDS011;3037;51.068;13.780;2022-12-10T00:22:28;62.50;;;29.30;;
6017;SDS011;3037;51.068;13.780;2022-12-10T00:24:53;62.57;;;28.10;;
6017;SDS011;3037;51.068;13.780;2022-12-10T00:27:19;61.67;;;28.97;;
6017;SDS011;3037;51.068;13.780;2022-12-10T00:29:45;52.00;;;26.00;;
6017;SDS011;3037;51.068;13.780;2022-12-10T00:32:10;53.53;;;27.57;;
6017;SDS011;3037;51.068;13.780;2022-12-10T00:34:36;54.63;;;27.77;;
6017;SDS011;3037;51.068;13.780;2022-12-10T00:37:01;52.47;;;28.00;;
6017;SDS011;3037;51.068;13.780;2022-12-10T00:39:27;61.77;;;27.10;;
6017;SDS011;3037;51.068;13.780;2022-12-10T00:41:53;58.77;;;27.27;;
6017;SDS011;3037;51.068;13.780;2022-12-10T00:44:19;55.03;;;26.17;;
6017;SDS011;3037;51.068;13.780;2022-12-10T00:46:45;55.07;;;27.57;;
6017;SDS011;3037;51.068;13.780;2022-12-10T00:49:10;57.40;;;28.27;;
6017;SDS011;3037;51.068;13.780;2022-12-10T00:51:37;52.47;;;27.77;;
6017;SDS011;3037;51.068;13.780;2022-12-10T00:54:03;57.30;;;27.63;;
6017;SDS011;3037;51.068;13.780;2022-12-10T00:56:29;53.67;;;25.50;;
6017;SDS011;3037;51.068;13.780;2022-12-10T00:58:57;52.07;;;26.47;;
6017;SDS011;3037;51.068;13.780;2022-12-10T01:01:25;55.17;;;26.17;;
6017;SDS011;3037;51.068;13.780;2022-12-10T01:03:57;57.93;;;27.73;;
6017;SDS011;3037;51.068;13.780;2022-12-10T01:08:59;53.10;;;25.87;;
6017;SDS011;3037;51.068;13.780;2022-12-10T01:11:28;50.63;;;27.87;;
6017;SDS011;3037;51.068;13.780;2022-12-10T01:13:55;57.57;;;26.93;;
6017;SDS011;3037;51.068;13.780;2022-12-10T01:16:21;54.80;;;25.80;;
6017;SDS011;3037;51.068;13.780;2022-12-10T01:18:48;65.57;;;28.97;;
6017;SDS011;3037;51.068;13.780;2022-12-10T01:21:15;55.97;;;24.93;;
6017;SDS011;3037;51.068;13.780;2022-12-10T01:23:43;56.77;;;25.80;;
6017;SDS011;3037;51.068;13.780;2022-12-10T01:26:12;55.83;;;26.90;;
6017;SDS011;3037;51.068;13.780;2022-12-10T01:28:40;55.13;;;25.23;;
6017;SDS011;3037;51.068;13.780;2022-12-10T01:31:25;52.23;;;25.00;;
6017;SDS011;3037;51.068;13.780;2022-12-10T01:33:52;51.20;;;24.63;;
6017;SDS011;3037;51.068;13.780;2022-12-10T01:36:23;51.40;;;25.53;;
6017;SDS011;3037;51.068;13.780;2022-12-10T01:38:50;50.87;;;25.10;;
6017;SDS011;3037;51.068;13.780;2022-12-10T01:41:29;52.47;;;24.93;;
6017;SDS011;3037;51.068;13.780;2022-12-10T01:44:05;50.80;;;25.20;;
6017;SDS011;3037;51.068;13.780;2022-12-10T01:46:49;44.67;;;23.37;;
6017;SDS011;3037;51.068;13.780;2022-12-10T01:49:18;51.80;;;25.80;;
6017;SDS011;3037;51.068;13.780;2022-12-10T01:51:46;47.70;;;23.53;;
6017;SDS011;3037;51.068;13.780;2022-12-10T01:54:25;47.07;;;24.00;;
6017;SDS011;3037;51.068;13.780;2022-12-10T01:56:59;44.13;;;23.93;;
6017;SDS011;3037;51.068;13.780;2022-12-10T01:59:31;51.77;;;24.67;;
6017;SDS011;3037;51.068;13.780;2022-12-10T02:02:09;45.97;;;21.73;;
6017;SDS011;3037;51.068;13.780;2022-12-10T02:07:52;51.37;;;22.73;;
6017;SDS011;3037;51.068;13.780;2022-12-10T02:15:51;46.97;;;23.10;;
6017;SDS011;3037;51.068;13.780;2022-12-10T02:18:21;43.70;;;21.13;;
6017;SDS011;3037;51.068;13.780;2022-12-10T02:20:54;50.73;;;22.30;;
6017;SDS011;3037;51.068;13.780;2022-12-10T02:23:24;39.23;;;21.03;;
6017;SDS011;3037;51.068;13.780;2022-12-10T02:26:11;44.63;;;22.80;;
6017;SDS011;3037;51.068;13.780;2022-12-10T02:31:30;45.50;;;23.20;;
6017;SDS011;3037;51.068;13.780;2022-12-10T02:33:58;47.63;;;22.53;;
6017;SDS011;3037;51.068;13.780;2022-12-10T02:36:28;45.60;;;22.00;;
6017;SDS011;3037;51.068;13.780;2022-12-10T02:38:58;42.20;;;21.77;;
6017;SDS011;3037;51.068;13.780;2022-12-10T02:41:28;44.37;;;21.20;;
6017;SDS011;3037;51.068;13.780;2022-12-10T02:43:58;41.47;;;21.23;;
6017;SDS011;3037;51.068;13.780;2022-12-10T02:46:27;39.50;;;21.57;;
6017;SDS011;3037;51.068;13.780;2022-12-10T02:48:54;46.87;;;20.30;;
6017;SDS011;3037;51.068;13.780;2022-12-10T02:51:24;43.23;;;20.53;;
6017;SDS011;3037;51.068;13.780;2022-12-10T02:54:01;39.20;;;20.37;;
6017;SDS011;3037;51.068;13.780;2022-12-10T03:07:16;38.00;;;20.40;;
6017;SDS011;3037;51.068;13.780;2022-12-10T03:09:50;47.53;;;21.50;;
6017;SDS011;3037;51.068;13.780;2022-12-10T03:12:26;46.03;;;20.87;;
6017;SDS011;3037;51.068;13.780;2022-12-10T03:14:58;43.43;;;20.30;;
6017;SDS011;3037;51.068;13.780;2022-12-10T03:17:25;43.53;;;20.13;;
6017;SDS011;3037;51.068;13.780;2022-12-10T03:19:53;41.00;;;20.80;;
6017;SDS011;3037;51.068;13.780;2022-12-10T03:22:21;44.00;;;20.47;;
6017;SDS011;3037;51.068;13.780;2022-12-10T03:24:47;42.07;;;19.00;;
6017;SDS011;3037;51.068;13.780;2022-12-10T03:27:13;36.10;;;18.70;;
6017;SDS011;3037;51.068;13.780;2022-12-10T03:29:44;44.47;;;21.97;;
6017;SDS011;3037;51.068;13.780;2022-12-10T03:32:12;41.97;;;21.33;;
6017;SDS011;3037;51.068;13.780;2022-12-10T03:34:39;41.10;;;21.77;;
6017;SDS011;3037;51.068;13.780;2022-12-10T03:37:06;42.43;;;20.77;;
6017;SDS011;3037;51.068;13.780;2022-12-10T03:39:32;41.97;;;22.10;;
6017;SDS011;3037;51.068;13.780;2022-12-10T03:41:58;47.57;;;23.73;;
6017;SDS011;3037;51.068;13.780;2022-12-10T03:44:28;43.10;;;22.10;;
6017;SDS011;3037;51.068;13.780;2022-12-10T03:46:55;46.67;;;22.50;;
6017;SDS011;3037;51.068;13.780;2022-12-10T03:49:21;49.63;;;22.27;;
6017;SDS011;3037;51.068;13.780;2022-12-10T03:51:46;43.83;;;22.50;;
6017;SDS011;3037;51.068;13.780;2022-12-10T03:54:12;42.93;;;22.23;;
6017;SDS011;3037;51.068;13.780;2022-12-10T03:56:37;44.67;;;21.80;;
6017;SDS011;3037;51.068;13.780;2022-12-10T03:59:03;42.83;;;21.10;;
6017;SDS011;3037;51.068;13.780;2022-12-10T04:01:28;42.27;;;21.27;;
6017;SDS011;3037;51.068;13.780;2022-12-10T04:03:54;44.30;;;20.60;;
6017;SDS011;3037;51.068;13.780;2022-12-10T04:06:19;44.30;;;20.60;;
6017;SDS011;3037;51.068;13.780;2022-12-10T04:08:45;40.53;;;19.90;;
6017;SDS011;3037;51.068;13.780;2022-12-10T04:11:11;49.43;;;22.73;;
6017;SDS011;3037;51.068;13.780;2022-12-10T04:13:38;44.83;;;19.63;;
6017;SDS011;3037;51.068;13.780;2022-12-10T04:16:23;40.43;;;21.17;;
6017;SDS011;3037;51.068;13.780;2022-12-10T04:19:14;38.13;;;19.83;;
6017;SDS011;3037;51.068;13.780;2022-12-10T04:21:40;45.03;;;20.03;;
6017;SDS011;3037;51.068;13.780;2022-12-10T04:24:26;39.97;;;21.10;;
6017;SDS011;3037;51.068;13.780;2022-12-10T04:27:14;50.40;;;19.80;;
6017;SDS011;3037;51.068;13.780;2022-12-10T04:29:52;40.87;;;18.87;;
6017;SDS011;3037;51.068;13.780;2022-12-10T04:32:18;45.80;;;20.77;;
6017;SDS011;3037;51.068;13.780;2022-12-10T04:34:45;39.43;;;19.87;;
6017;SDS011;3037;51.068;13.780;2022-12-10T04:37:11;46.33;;;21.63;;
6017;SDS011;3037;51.068;13.780;2022-12-10T04:39:37;53.30;;;22.57;;
6017;SDS011;3037;51.068;13.780;2022-12-10T04:42:03;45.10;;;20.80;;
6017;SDS011;3037;51.068;13.780;2022-12-10T04:44:29;54.33;;;22.27;;
6017;SDS011;3037;51.068;13.780;2022-12-10T04:46:55;45.33;;;21.43;;
6017;SDS011;3037;51.068;13.780;2022-12-10T04:49:21;44.90;;;22.70;;
6017;SDS011;3037;51.068;13.780;2022-12-10T04:51:47;51.97;;;23.20;;
6017;SDS011;3037;51.068;13.780;2022-12-10T04:54:13;46.07;;;21.63;;
6017;SDS011;3037;51.068;13.780;2022-12-10T04:56:38;45.27;;;21.20;;
6017;SDS011;3037;51.068;13.780;2022-12-10T04:59:05;47.60;;;21.60;;
6017;SDS011;3037;51.068;13.780;2022-12-10T05:01:31;44.23;;;22.33;;
6017;SDS011;3037;51.068;13.780;2022-12-10T05:03:58;44.70;;;20.87;;
6017;SDS011;3037;51.068;13.780;2022-12-10T05:06:25;42.00;;;19.90;;
6017;SDS011;3037;51.068;13.780;2022-12-10T05:08:52;42.70;;;19.93;;
6017;SDS011;3037;51.068;13.780;2022-12-10T05:11:19;44.93;;;22.33;;
6017;SDS011;3037;51.068;13.780;2022-12-10T05:13:45;41.97;;;21.10;;
6017;SDS011;3037;51.068;13.780;2022-12-10T05:16:12;41.73;;;20.03;;
6017;SDS011;3037;51.068;13.780;2022-12-10T05:18:41;45.53;;;22.27;;
6017;SDS011;3037;51.068;13.780;2022-12-10T05:21:09;39.57;;;21.00;;
6017;SDS011;3037;51.068;13.780;2022-12-10T05:23:38;46.00;;;18.73;;
6017;SDS011;3037;51.068;13.780;2022-12-10T05:26:18;46.10;;;22.23;;
6017;SDS011;3037;51.068;13.780;2022-12-10T05:28:47;50.40;;;22.13;;
6017;SDS011;3037;51.068;13.780;2022-12-10T05:31:21;40.67;;;20.23;;
6017;SDS011;3037;51.068;13.780;2022-12-10T05:33:49;43.53;;;22.00;;
6017;SDS011;3037;51.068;13.780;2022-12-10T05:36:15;55.13;;;23.10;;
6017;SDS011;3037;51.068;13.780;2022-12-10T05:38:42;55.20;;;22.20;;
6017;SDS011;3037;51.068;13.780;2022-12-10T05:41:12;47.07;;;22.37;;
6017;SDS011;3037;51.068;13.780;2022-12-10T05:43:40;46.80;;;21.93;;
6017;SDS011;3037;51.068;13.780;2022-12-10T05:46:07;51.40;;;20.50;;
6017;SDS011;3037;51.068;13.780;2022-12-10T05:48:35;50.03;;;21.00;;
6017;SDS011;3037;51.068;13.780;2022-12-10T05:51:05;41.90;;;20.13;;
6017;SDS011;3037;51.068;13.780;2022-12-10T05:53:32;50.13;;;21.97;;
6017;SDS011;3037;51.068;13.780;2022-12-10T05:55:59;49.97;;;22.27;;
6017;SDS011;3037;51.068;13.780;2022-12-10T05:58:29;46.83;;;19.80;;
6017;SDS011;3037;51.068;13.780;2022-12-10T06:00:55;41.03;;;19.60;;
6017;SDS011;3037;51.068;13.780;2022-12-10T06:03:22;45.60;;;21.03;;
6017;SDS011;3037;51.068;13.780;2022-12-10T06:05:48;48.27;;;22.60;;
6017;SDS011;3037;51.068;13.780;2022-12-10T06:08:13;54.77;;;22.37;;
6017;SDS011;3037;51.068;13.780;2022-12-10T06:10:39;46.43;;;20.93;;
6017;SDS011;3037;51.068;13.780;2022-12-10T06:13:04;42.83;;;21.37;;
6017;SDS011;3037;51.068;13.780;2022-12-10T06:15:30;47.83;;;22.83;;
6017;SDS011;3037;51.068;13.780;2022-12-10T06:17:57;46.93;;;21.90;;
6017;SDS011;3037;51.068;13.780;2022-12-10T06:20:23;45.63;;;20.70;;
6017;SDS011;3037;51.068;13.780;2022-12-10T06:22:50;50.30;;;20.73;;
6017;SDS011;3037;51.068;13.780;2022-12-10T06:25:15;46.43;;;23.10;;
6017;SDS011;3037;51.068;13.780;2022-12-10T06:27:41;49.87;;;22.90;;
6017;SDS011;3037;51.068;13.780;2022-12-10T06:30:07;62.13;;;25.00;;
6017;SDS011;3037;51.068;13.780;2022-12-10T06:32:33;67.67;;;30.30;;
6017;SDS011;3037;51.068;13.780;2022-12-10T06:34:58;57.00;;;25.30;;
6017;SDS011;3037;51.068;13.780;2022-12-10T06:37:24;58.83;;;23.40;;
6017;SDS011;3037;51.068;13.780;2022-12-10T06:39:50;47.73;;;20.87;;
6017;SDS011;3037;51.068;13.780;2022-12-10T06:42:17;50.77;;;23.40;;
6017;SDS011;3037;51.068;13.780;2022-12-10T06:44:43;58.67;;;23.13;;
6017;SDS011;3037;51.068;13.780;2022-12-10T06:47:09;52.17;;;22.37;;
6017;SDS011;3037;51.068;13.780;2022-12-10T06:49:35;44.70;;;22.70;;
6017;SDS011;3037;51.068;13.780;2022-12-10T06:52:01;52.47;;;22.27;;
6017;SDS011;3037;51.068;13.780;2022-12-10T06:54:28;48.23;;;22.30;;
6017;SDS011;3037;51.068;13.780;2022-12-10T06:56:53;45.57;;;20.57;;
6017;SDS011;3037;51.068;13.780;2022-12-10T06:59:19;42.10;;;20.53;;
6017;SDS011;3037;51.068;13.780;2022-12-10T07:01:45;47.47;;;22.20;;
6017;SDS011;3037;51.068;13.780;2022-12-10T07:04:11;52.20;;;22.30;;
6017;SDS011;3037;51.068;13.780;2022-12-10T07:06:36;50.00;;;20.47;;
6017;SDS011;3037;51.068;13.780;2022-12-10T07:09:02;48.20;;;21.43;;
6017;SDS011;3037;51.068;13.780;2022-12-10T07:11:27;45.07;;;19.73;;
6017;SDS011;3037;51.068;13.780;2022-12-10T07:13:55;44.57;;;21.73;;
6017;SDS011;3037;51.068;13.780;2022-12-10T07:16:23;46.07;;;21.70;;
6017;SDS011;3037;51.068;13.780;2022-12-10T07:18:54;40.57;;;19.27;;
6017;SDS011;3037;51.068;13.780;2022-12-10T07:21:24;43.70;;;20.43;;
6017;SDS011;3037;51.068;13.780;2022-12-10T07:23:56;42.70;;;19.37;;
6017;SDS011;3037;51.068;13.780;2022-12-10T07:26:25;49.07;;;21.17;;
6017;SDS011;3037;51.068;13.780;2022-12-10T07:28:53;48.60;;;22.03;;
6017;SDS011;3037;51.068;13.780;2022-12-10T07:31:19;48.57;;;21.23;;
6017;SDS011;3037;51.068;13.780;2022-12-10T07:33:46;46.43;;;21.17;;
6017;SDS011;3037;51.068;13.780;2022-12-10T07:36:11;56.90;;;24.17;;
6017;SDS011;3037;51.068;13.780;2022-12-10T07:38:39;57.50;;;22.90;;
6017;SDS011;3037;51.068;13.780;2022-12-10T07:41:05;51.10;;;24.07;;
6017;SDS011;3037;51.068;13.780;2022-12-10T07:43:36;48.47;;;21.87;;
6017;SDS011;3037;51.068;13.780;2022-12-10T07:46:07;49.73;;;22.50;;
6017;SDS011;3037;51.068;13.780;2022-12-10T07:48:33;48.37;;;21.07;;
6017;SDS011;3037;51.068;13.780;2022-12-10T07:51:00;53.93;;;22.13;;
6017;SDS011;3037;51.068;13.780;2022-12-10T07:53:26;49.67;;;23.70;;
6017;SDS011;3037;51.068;13.780;2022-12-10T07:55:51;49.27;;;22.07;;
6017;SDS011;3037;51.068;13.780;2022-12-10T07:58:17;45.13;;;21.90;;
6017;SDS011;3037;51.068;13.780;2022-12-10T08:00:42;42.33;;;20.80;;
6017;SDS011;3037;51.068;13.780;2022-12-10T08:03:08;48.90;;;20.53;;
6017;SDS011;3037;51.068;13.780;2022-12-10T08:05:34;44.50;;;21.17;;
6017;SDS011;3037;51.068;13.780;2022-12-10T08:07:59;45.67;;;20.90;;
6017;SDS011;3037;51.068;13.780;2022-12-10T08:10:25;46.23;;;20.77;;
6017;SDS011;3037;51.068;13.780;2022-12-10T08:12:50;41.47;;;21.07;;
6017;SDS011;3037;51.068;13.780;2022-12-10T08:15:16;54.67;;;23.33;;
6017;SDS011;3037;51.068;13.780;2022-12-10T08:17:41;48.60;;;21.33;;
6017;SDS011;3037;51.068;13.780;2022-12-10T08:20:07;50.30;;;23.27;;
6017;SDS011;3037;51.068;13.780;2022-12-10T08:22:33;53.53;;;22.30;;
6017;SDS011;3037;51.068;13.780;2022-12-10T08:25:00;51.43;;;21.47;;
6017;SDS011;3037;51.068;13.780;2022-12-10T08:27:26;47.80;;;20.97;;
6017;SDS011;3037;51.068;13.780;2022-12-10T08:29:51;51.03;;;23.40;;
6017;SDS011;3037;51.068;13.780;2022-12-10T08:32:17;51.90;;;22.40;;
6017;SDS011;3037;51.068;13.780;2022-12-10T08:34:42;47.77;;;22.30;;
6017;SDS011;3037;51.068;13.780;2022-12-10T08:37:09;50.77;;;23.27;;
6017;SDS011;3037;51.068;13.780;2022-12-10T08:39:34;55.80;;;22.63;;
6017;SDS011;3037;51.068;13.780;2022-12-10T08:42:00;51.30;;;22.10;;
6017;SDS011;3037;51.068;13.780;2022-12-10T08:44:26;45.00;;;22.50;;
6017;SDS011;3037;51.068;13.780;2022-12-10T08:46:51;49.10;;;20.77;;
6017;SDS011;3037;51.068;13.780;2022-12-10T08:49:17;49.30;;;23.57;;
6017;SDS011;3037;51.068;13.780;2022-12-10T08:51:42;47.73;;;21.43;;
6017;SDS011;3037;51.068;13.780;2022-12-10T08:54:08;51.03;;;22.17;;
6017;SDS011;3037;51.068;13.780;2022-12-10T08:56:34;44.60;;;21.23;;
6017;SDS011;3037;51.068;13.780;2022-12-10T08:59:00;51.47;;;23.97;;
6017;SDS011;3037;51.068;13.780;2022-12-10T09:01:25;50.17;;;22.20;;
6017;SDS011;3037;51.068;13.780;2022-12-10T09:03:51;46.57;;;20.40;;
6017;SDS011;3037;51.068;13.780;2022-12-10T09:06:18;55.53;;;22.17;;
6017;SDS011;3037;51.068;13.780;2022-12-10T09:08:46;54.57;;;23.40;;
6017;SDS011;3037;51.068;13.780;2022-12-10T09:13:39;61.80;;;24.00;;
6017;SDS011;3037;51.068;13.780;2022-12-10T09:16:05;48.03;;;21.70;;
6017;SDS011;3037;51.068;13.780;2022-12-10T09:18:30;47.50;;;23.17;;
6017;SDS011;3037;51.068;13.780;2022-12-10T09:20:56;57.07;;;23.10;;
6017;SDS011;3037;51.068;13.780;2022-12-10T09:23:22;53.70;;;23.43;;
6017;SDS011;3037;51.068;13.780;2022-12-10T09:25:48;50.33;;;21.43;;
6017;SDS011;3037;51.068;13.780;2022-12-10T09:28:13;48.53;;;22.80;;
6017;SDS011;3037;51.068;13.780;2022-12-10T09:30:39;50.57;;;21.37;;
6017;SDS011;3037;51.068;13.780;2022-12-10T09:33:04;42.83;;;21.40;;
6017;SDS011;3037;51.068;13.780;2022-12-10T09:35:30;52.60;;;24.30;;
6017;SDS011;3037;51.068;13.780;2022-12-10T09:37:56;62.93;;;25.73;;
6017;SDS011;3037;51.068;13.780;2022-12-10T09:40:35;51.13;;;23.20;;
6017;SDS011;3037;51.068;13.780;2022-12-10T09:46:11;53.80;;;23.20;;
6017;SDS011;3037;51.068;13.780;2022-12-10T09:48:47;51.00;;;24.00;;
6017;SDS011;3037;51.068;13.780;2022-12-10T09:51:25;57.10;;;24.40;;
6017;SDS011;3037;51.068;13.780;2022-12-10T09:53:54;55.43;;;25.17;;
6017;SDS011;3037;51.068;13.780;2022-12-10T09:56:29;54.70;;;26.47;;
6017;SDS011;3037;51.068;13.780;2022-12-10T09:58:59;47.30;;;23.57;;
6017;SDS011;3037;51.068;13.780;2022-12-10T10:01:33;52.80;;;22.40;;
6017;SDS011;3037;51.068;13.780;2022-12-10T10:04:00;57.80;;;25.37;;
6017;SDS011;3037;51.068;13.780;2022-12-10T10:06:28;79.70;;;34.17;;
6017;SDS011;3037;51.068;13.780;2022-12-10T10:08:55;50.60;;;23.37;;
6017;SDS011;3037;51.068;13.780;2022-12-10T10:11:27;78.23;;;31.20;;
6017;SDS011;3037;51.068;13.780;2022-12-10T10:16:32;55.43;;;25.30;;
6017;SDS011;3037;51.068;13.780;2022-12-10T10:21:59;62.13;;;25.40;;
6017;SDS011;3037;51.068;13.780;2022-12-10T10:24:26;56.73;;;27.07;;
6017;SDS011;3037;51.068;13.780;2022-12-10T10:26:58;56.40;;;27.03;;
6017;SDS011;3037;51.068;13.780;2022-12-10T10:29:55;40.23;;;20.80;;
6017;SDS011;3037;51.068;13.780;2022-12-10T10:32:27;44.20;;;23.47;;
6017;SDS011;3037;51.068;13.780;2022-12-10T10:34:59;46.67;;;24.20;;
6017;SDS011;3037;51.068;13.780;2022-12-10T10:37:26;45.80;;;21.70;;
6017;SDS011;3037;51.068;13.780;2022-12-10T10:39:54;46.50;;;21.43;;
6017;SDS011;3037;51.068;13.780;2022-12-10T10:42:41;43.47;;;23.03;;
6017;SDS011;3037;51.068;13.780;2022-12-10T10:45:50;38.67;;;20.87;;
6017;SDS011;3037;51.068;13.780;2022-12-10T10:50:51;51.37;;;22.63;;
6017;SDS011;3037;51.068;13.780;2022-12-10T10:53:22;40.70;;;24.00;;
6017;SDS011;3037;51.068;13.780;2022-12-10T10:55:50;58.77;;;27.87;;
6017;SDS011;3037;51.068;13.780;2022-12-10T10:58:21;58.53;;;27.13;;
6017;SDS011;3037;51.068;13.780;2022-12-10T11:00:53;49.73;;;23.20;;
6017;SDS011;3037;51.068;13.780;2022-12-10T11:03:24;47.03;;;24.30;;
6017;SDS011;3037;51.068;13.780;2022-12-10T11:05:51;48.00;;;22.37;;
6017;SDS011;3037;51.068;13.780;2022-12-10T11:08:17;46.00;;;23.77;;
6017;SDS011;3037;51.068;13.780;2022-12-10T11:10:46;39.10;;;19.93;;
6017;SDS011;3037;51.068;13.780;2022-12-10T11:15:54;42.43;;;21.33;;
6017;SDS011;3037;51.068;13.780;2022-12-10T11:20:58;34.80;;;21.03;;
6017;SDS011;3037;51.068;13.780;2022-12-10T11:23:29;34.33;;;19.60;;
6017;SDS011;3037;51.068;13.780;2022-12-10T11:26:06;33.27;;;20.07;;
6017;SDS011;3037;51.068;13.780;2022-12-10T11:28:57;37.73;;;19.73;;
6017;SDS011;3037;51.068;13.780;2022-12-10T11:32:00;33.10;;;18.67;;
6017;SDS011;3037;51.068;13.780;2022-12-10T11:37:57;33.10;;;19.17;;
6017;SDS011;3037;51.068;13.780;2022-12-10T11:43:13;30.73;;;17.13;;
6017;SDS011;3037;51.068;13.780;2022-12-10T11:46:13;32.50;;;17.67;;
6017;SDS011;3037;51.068;13.780;2022-12-10T11:51:46;32.10;;;19.27;;
6017;SDS011;3037;51.068;13.780;2022-12-10T12:08:54;33.40;;;19.60;;
6017;SDS011;3037;51.068;13.780;2022-12-10T12:17:17;30.10;;;17.40;;
6017;SDS011;3037;51.068;13.780;2022-12-10T12:19:57;28.10;;;16.60;;
6017;SDS011;3037;51.068;13.780;2022-12-10T12:22:34;28.93;;;16.53;;
6017;SDS011;3037;51.068;13.780;2022-12-10T12:25:08;31.70;;;18.13;;
6017;SDS011;3037;51.068;13.780;2022-12-10T12:27:51;33.47;;;17.40;;
6017;SDS011;3037;51.068;13.780;2022-12-10T12:30:23;30.87;;;17.03;;
6017;SDS011;3037;51.068;13.780;2022-12-10T12:33:06;26.50;;;17.90;;
6017;SDS011;3037;51.068;13.780;2022-12-10T12:50:25;31.03;;;17.40;;
6017;SDS011;3037;51.068;13.780;2022-12-10T12:53:02;26.77;;;16.20;;
6017;SDS011;3037;51.068;13.780;2022-12-10T12:55:46;25.77;;;16.27;;
6017;SDS011;3037;51.068;13.780;2022-12-10T12:58:51;29.00;;;15.83;;
6017;SDS011;3037;51.068;13.780;2022-12-10T13:01:34;26.50;;;16.30;;
6017;SDS011;3037;51.068;13.780;2022-12-10T13:04:08;28.67;;;16.67;;
6017;SDS011;3037;51.068;13.780;2022-12-10T13:06:36;33.60;;;16.97;;
6017;SDS011;3037;51.068;13.780;2022-12-10T13:11:40;32.70;;;17.13;;
6017;SDS011;3037;51.068;13.780;2022-12-10T13:32:23;30.17;;;17.10;;
6017;SDS011;3037;51.068;13.780;2022-12-10T13:37:33;27.50;;;16.60;;
6017;SDS011;3037;51.068;13.780;2022-12-10T13:40:14;28.30;;;15.87;;
6017;SDS011;3037;51.068;13.780;2022-12-10T13:42:54;32.13;;;16.50;;
6017;SDS011;3037;51.068;13.780;2022-12-10T13:45:40;21.37;;;15.30;;
6017;SDS011;3037;51.068;13.780;2022-12-10T13:48:23;25.83;;;15.60;;
6017;SDS011;3037;51.068;13.780;2022-12-10T13:51:13;23.73;;;15.47;;
6017;SDS011;3037;51.068;13.780;2022-12-10T14:08:09;27.80;;;14.17;;
6017;SDS011;3037;51.068;13.780;2022-12-10T14:10:40;27.77;;;16.80;;
6017;SDS011;3037;51.068;13.780;2022-12-10T14:13:06;26.43;;;16.07;;
6017;SDS011;3037;51.068;13.780;2022-12-10T14:15:33;25.37;;;15.90;;
6017;SDS011;3037;51.068;13.780;2022-12-10T14:18:02;25.10;;;15.70;;
6017;SDS011;3037;51.068;13.780;2022-12-10T14:20:31;25.57;;;15.20;;
6017;SDS011;3037;51.068;13.780;2022-12-10T14:23:02;24.77;;;14.70;;
6017;SDS011;3037;51.068;13.780;2022-12-10T14:25:50;28.37;;;15.77;;
6017;SDS011;3037;51.068;13.780;2022-12-10T14:28:17;26.03;;;15.27;;
6017;SDS011;3037;51.068;13.780;2022-12-10T14:30:47;28.53;;;17.07;;
6017;SDS011;3037;51.068;13.780;2022-12-10T14:33:18;24.57;;;14.50;;
6017;SDS011;3037;51.068;13.780;2022-12-10T14:35:46;23.10;;;14.30;;
6017;SDS011;3037;51.068;13.780;2022-12-10T14:38:21;24.20;;;14.93;;
6017;SDS011;3037;51.068;13.780;2022-12-10T14:40:53;25.80;;;15.77;;
6017;SDS011;3037;51.068;13.780;2022-12-10T14:43:21;28.87;;;17.10;;
6017;SDS011;3037;51.068;13.780;2022-12-10T14:45:49;26.93;;;15.60;;
6017;SDS011;3037;51.068;13.780;2022-12-10T14:48:16;26.83;;;14.70;;
6017;SDS011;3037;51.068;13.780;2022-12-10T14:50:43;29.63;;;17.67;;
6017;SDS011;3037;51.068;13.780;2022-12-10T14:53:14;32.93;;;18.23;;
6017;SDS011;3037;51.068;13.780;2022-12-10T14:55:44;28.63;;;15.43;;
6017;SDS011;3037;51.068;13.780;2022-12-10T14:58:14;28.03;;;16.17;;
6017;SDS011;3037;51.068;13.780;2022-12-10T15:00:43;27.10;;;16.50;;
6017;SDS011;3037;51.068;13.780;2022-12-10T15:03:10;22.20;;;15.50;;
6017;SDS011;3037;51.068;13.780;2022-12-10T15:05:53;25.40;;;16.80;;
6017;SDS011;3037;51.068;13.780;2022-12-10T15:08:20;35.83;;;18.33;;
6017;SDS011;3037;51.068;13.780;2022-12-10T15:10:49;26.63;;;16.40;;
6017;SDS011;3037;51.068;13.780;2022-12-10T15:13:21;30.17;;;17.23;;
6017;SDS011;3037;51.068;13.780;2022-12-10T15:15:52;33.93;;;19.50;;
6017;SDS011;3037;51.068;13.780;2022-12-10T15:18:19;33.30;;;17.33;;
6017;SDS011;3037;51.068;13.780;2022-12-10T15:23:40;33.40;;;18.03;;
6017;SDS011;3037;51.068;13.780;2022-12-10T15:26:18;27.93;;;17.17;;
6017;SDS011;3037;51.068;13.780;2022-12-10T15:31:48;32.83;;;19.07;;
6017;SDS011;3037;51.068;13.780;2022-12-10T15:34:14;32.67;;;17.97;;
6017;SDS011;3037;51.068;13.780;2022-12-10T15:36:43;32.70;;;19.13;;
6017;SDS011;3037;51.068;13.780;2022-12-10T15:39:20;33.70;;;19.60;;
6017;SDS011;3037;51.068;13.780;2022-12-10T15:42:00;33.20;;;18.83;;
6017;SDS011;3037;51.068;13.780;2022-12-10T15:44:32;34.40;;;18.10;;
6017;SDS011;3037;51.068;13.780;2022-12-10T15:47:18;33.80;;;18.87;;
6017;SDS011;3037;51.068;13.780;2022-12-10T15:49:46;38.50;;;20.53;;
6017;SDS011;3037;51.068;13.780;2022-12-10T15:52:17;42.20;;;21.17;;
6017;SDS011;3037;51.068;13.780;2022-12-10T15:54:45;42.60;;;22.47;;
6017;SDS011;3037;51.068;13.780;2022-12-10T15:57:14;41.63;;;22.00;;
6017;SDS011;3037;51.068;13.780;2022-12-10T15:59:40;32.47;;;18.80;;
6017;SDS011;3037;51.068;13.780;2022-12-10T16:04:51;36.67;;;20.53;;
6017;SDS011;3037;51.068;13.780;2022-12-10T16:07:17;35.17;;;19.07;;
6017;SDS011;3037;51.068;13.780;2022-12-10T16:09:43;39.80;;;20.40;;
6017;SDS011;3037;51.068;13.780;2022-12-10T16:12:10;40.30;;;19.67;;
6017;SDS011;3037;51.068;13.780;2022-12-10T16:14:38;33.47;;;18.90;;
6017;SDS011;3037;51.068;13.780;2022-12-10T16:17:12;35.50;;;18.53;;
6017;SDS011;3037;51.068;13.780;2022-12-10T16:19:38;35.73;;;19.50;;
6017;SDS011;3037;51.068;13.780;2022-12-10T16:22:04;36.37;;;19.67;;
6017;SDS011;3037;51.068;13.780;2022-12-10T16:24:30;32.80;;;18.90;;
6017;SDS011;3037;51.068;13.780;2022-12-10T16:26:55;38.00;;;20.40;;
6017;SDS011;3037;51.068;13.780;2022-12-10T16:29:21;35.27;;;19.50;;
6017;SDS011;3037;51.068;13.780;2022-12-10T16:31:47;35.00;;;20.27;;
6017;SDS011;3037;51.068;13.780;2022-12-10T16:34:12;48.80;;;21.80;;
6017;SDS011;3037;51.068;13.780;2022-12-10T16:36:38;35.03;;;20.90;;
6017;SDS011;3037;51.068;13.780;2022-12-10T16:39:04;38.07;;;21.13;;
6017;SDS011;3037;51.068;13.780;2022-12-10T16:41:30;37.47;;;20.97;;
6017;SDS011;3037;51.068;13.780;2022-12-10T16:43:56;39.47;;;22.00;;
6017;SDS011;3037;51.068;13.780;2022-12-10T16:46:22;38.20;;;20.83;;
6017;SDS011;3037;51.068;13.780;2022-12-10T16:48:48;33.90;;;19.67;;
6017;SDS011;3037;51.068;13.780;2022-12-10T16:51:15;32.83;;;17.60;;
6017;SDS011;3037;51.068;13.780;2022-12-10T16:53:46;32.63;;;19.17;;
6017;SDS011;3037;51.068;13.780;2022-12-10T16:56:13;31.53;;;18.13;;
6017;SDS011;3037;51.068;13.780;2022-12-10T16:58:42;36.37;;;20.50;;
6017;SDS011;3037;51.068;13.780;2022-12-10T17:01:14;41.37;;;19.87;;